createdAt,value
2023-03-16T00:00:50.012Z,-84
2023-03-16T00:01:52.751Z,-84
2023-03-16T00:02:55.514Z,-84
2023-03-16T00:03:58.138Z,-84
2023-03-16T00:05:00.797Z,-84
2023-03-16T00:06:03.569Z,-84
2023-03-16T00:07:12.214Z,-85
2023-03-16T00:08:16.124Z,-83
2023-03-16T00:09:18.754Z,-83
2023-03-16T00:10:28.429Z,-83
2023-03-16T00:11:31.712Z,-83
2023-03-16T00:12:36.009Z,-83
2023-03-16T00:13:38.649Z,-83
2023-03-16T00:14:41.286Z,-83
2023-03-16T00:15:54.713Z,-84
2023-03-16T00:16:57.400Z,-83
2023-03-16T00:18:00.318Z,-83
2023-03-16T00:19:04.434Z,-82
2023-03-16T00:20:08.124Z,-83
2023-03-16T00:21:10.960Z,-84
2023-03-16T00:22:16.342Z,-83
2023-03-16T00:23:19.782Z,-83
2023-03-16T00:24:26.055Z,-84
2023-03-16T00:25:28.668Z,-85
2023-03-16T00:26:31.344Z,-85
2023-03-16T00:27:34.049Z,-84
2023-03-16T00:28:37.607Z,-84
2023-03-16T00:29:40.389Z,-84
2023-03-16T00:30:43.053Z,-84
2023-03-16T00:31:45.767Z,-84
2023-03-16T00:32:48.524Z,-84
2023-03-16T00:33:51.172Z,-85
2023-03-16T00:34:53.904Z,-84
2023-03-16T00:36:03.215Z,-85
2023-03-16T00:37:06.272Z,-84
2023-03-16T00:38:08.963Z,-84
2023-03-16T00:39:12.887Z,-84
2023-03-16T00:40:15.796Z,-84
2023-03-16T00:41:18.446Z,-85
2023-03-16T00:42:21.499Z,-85
2023-03-16T00:43:24.186Z,-84
2023-03-16T00:44:26.804Z,-85
2023-03-16T00:45:29.487Z,-85
2023-03-16T00:46:32.364Z,-84
2023-03-16T00:47:35.913Z,-84
2023-03-16T00:48:40.575Z,-84
2023-03-16T00:49:45.087Z,-84
2023-03-16T00:50:47.742Z,-84
2023-03-16T00:51:50.505Z,-84
2023-03-16T00:52:54.798Z,-84
2023-03-16T00:53:57.444Z,-85
2023-03-16T00:55:00.152Z,-84
2023-03-16T00:56:06.880Z,-84
2023-03-16T00:57:10.280Z,-84
2023-03-16T00:58:15.971Z,-84
2023-03-16T00:59:20.706Z,-84
2023-03-16T01:00:25.124Z,-84
2023-03-16T01:01:28.498Z,-84
2023-03-16T01:02:31.119Z,-84
2023-03-16T01:03:34.597Z,-84
2023-03-16T01:04:37.883Z,-84
2023-03-16T01:05:43.698Z,-84
2023-03-16T01:06:47.481Z,-83
2023-03-16T01:07:50.205Z,-84
2023-03-16T01:08:56.394Z,-84
2023-03-16T01:09:59.370Z,-84
2023-03-16T01:11:19.747Z,-84
2023-03-16T01:12:22.419Z,-84
2023-03-16T01:13:25.066Z,-85
2023-03-16T01:14:28.073Z,-82
2023-03-16T01:15:32.149Z,-82
2023-03-16T01:16:34.929Z,-82
2023-03-16T01:17:37.664Z,-82
2023-03-16T01:18:40.465Z,-82
2023-03-16T01:19:43.670Z,-82
2023-03-16T01:20:51.802Z,-83
2023-03-16T01:21:54.673Z,-81
2023-03-16T01:22:57.312Z,-82
2023-03-16T01:23:59.933Z,-82
2023-03-16T01:25:02.601Z,-82
2023-03-16T01:26:05.566Z,-82
2023-03-16T01:27:08.908Z,-82
2023-03-16T01:28:11.752Z,-83
2023-03-16T01:29:14.422Z,-82
2023-03-16T01:30:17.101Z,-82
2023-03-16T01:31:19.846Z,-82
2023-03-16T01:32:22.520Z,-82
2023-03-16T01:33:28.097Z,-82
2023-03-16T01:34:31.377Z,-82
2023-03-16T01:35:34.060Z,-82
2023-03-16T01:36:36.717Z,-82
2023-03-16T01:37:39.421Z,-83
2023-03-16T01:38:42.613Z,-82
2023-03-16T01:39:45.268Z,-82
2023-03-16T01:40:51.894Z,-82
2023-03-16T01:41:54.678Z,-83
2023-03-16T01:43:04.119Z,-82
2023-03-16T01:44:07.039Z,-82
2023-03-16T01:45:48.183Z,-83
2023-03-16T01:46:51.704Z,-82
2023-03-16T01:47:54.870Z,-82
2023-03-16T01:49:06.623Z,-82
2023-03-16T01:50:09.658Z,-82
2023-03-16T01:51:17.073Z,-83
2023-03-16T01:52:25.465Z,-82
2023-03-16T01:53:28.139Z,-82
2023-03-16T01:54:43.749Z,-82
2023-03-16T01:55:47.938Z,-82
2023-03-16T01:56:57.009Z,-82
2023-03-16T01:57:59.684Z,-83
2023-03-16T01:59:06.690Z,-82
2023-03-16T02:00:19.743Z,-82
2023-03-16T02:01:22.658Z,-82
2023-03-16T02:02:30.973Z,-83
2023-03-16T02:03:36.777Z,-81
2023-03-16T02:04:54.620Z,-82
2023-03-16T02:06:26.528Z,-83
2023-03-16T02:07:32.725Z,-83
2023-03-16T02:08:37.534Z,-82
2023-03-16T02:09:43.914Z,-83
2023-03-16T02:10:47.028Z,-82
2023-03-16T02:11:50.237Z,-83
2023-03-16T02:12:53.946Z,-83
2023-03-16T02:14:02.459Z,-83
2023-03-16T02:15:05.812Z,-80
2023-03-16T02:16:09.804Z,-83
2023-03-16T02:17:13.543Z,-83
2023-03-16T02:18:16.542Z,-83
2023-03-16T02:19:43.344Z,-83
2023-03-16T02:20:51.253Z,-83
2023-03-16T02:22:05.278Z,-83
2023-03-16T02:23:19.505Z,-82
2023-03-16T02:24:22.853Z,-81
2023-03-16T02:25:31.385Z,-82
2023-03-16T02:26:48.936Z,-83
2023-03-16T02:28:18.954Z,-83
2023-03-16T02:29:58.368Z,-83
2023-03-16T02:31:03.253Z,-83
2023-03-16T02:32:07.150Z,-84
2023-03-16T02:33:10.358Z,-83
2023-03-16T02:34:15.565Z,-83
2023-03-16T02:35:18.429Z,-82
2023-03-16T02:36:22.043Z,-83
2023-03-16T02:37:24.688Z,-83
2023-03-16T02:38:27.502Z,-83
2023-03-16T02:39:30.154Z,-83
2023-03-16T02:40:35.891Z,-84
2023-03-16T02:41:38.797Z,-83
2023-03-16T02:42:41.845Z,-83
2023-03-16T02:43:54.856Z,-83
2023-03-16T02:45:00.018Z,-83
2023-03-16T02:46:06.222Z,-83
2023-03-16T02:47:16.414Z,-83
2023-03-16T02:48:31.116Z,-83
2023-03-16T02:49:43.443Z,-83
2023-03-16T02:50:48.409Z,-83
2023-03-16T02:51:51.190Z,-83
2023-03-16T02:52:53.815Z,-83
2023-03-16T02:53:57.016Z,-83
2023-03-16T02:54:59.665Z,-83
2023-03-16T02:56:04.141Z,-83
2023-03-16T02:57:06.821Z,-83
2023-03-16T02:58:09.531Z,-83
2023-03-16T02:59:13.277Z,-83
2023-03-16T03:00:19.847Z,-84
2023-03-16T03:01:22.815Z,-83
2023-03-16T03:02:25.622Z,-83
2023-03-16T03:03:28.407Z,-83
2023-03-16T03:04:31.089Z,-83
2023-03-16T03:05:33.709Z,-83
2023-03-16T03:06:36.646Z,-83
2023-03-16T03:07:39.588Z,-83
2023-03-16T03:08:43.721Z,-84
2023-03-16T03:09:46.377Z,-83
2023-03-16T03:10:49.437Z,-83
2023-03-16T03:11:52.025Z,-83
2023-03-16T03:12:54.672Z,-83
2023-03-16T03:13:57.560Z,-83
2023-03-16T03:15:00.509Z,-84
2023-03-16T03:16:03.206Z,-83
2023-03-16T03:17:11.050Z,-84
2023-03-16T03:18:15.567Z,-84
2023-03-16T03:19:18.264Z,-83
2023-03-16T03:20:21.004Z,-84
2023-03-16T03:21:25.096Z,-84
2023-03-16T03:22:28.185Z,-83
2023-03-16T03:23:31.399Z,-83
2023-03-16T03:24:35.602Z,-83
2023-03-16T03:25:38.279Z,-83
2023-03-16T03:26:40.973Z,-83
2023-03-16T03:27:44.731Z,-84
2023-03-16T03:28:47.593Z,-83
2023-03-16T03:29:50.289Z,-84
2023-03-16T03:30:53.182Z,-84
2023-03-16T03:31:55.849Z,-84
2023-03-16T03:32:58.521Z,-84
2023-03-16T03:34:07.453Z,-84
2023-03-16T03:35:10.246Z,-84
2023-03-16T03:36:13.498Z,-84
2023-03-16T03:37:16.181Z,-83
2023-03-16T03:38:18.815Z,-84
2023-03-16T03:39:21.486Z,-82
2023-03-16T03:40:24.151Z,-83
2023-03-16T03:41:27.203Z,-83
2023-03-16T03:42:29.845Z,-84
2023-03-16T03:43:32.483Z,-84
2023-03-16T03:44:38.166Z,-83
2023-03-16T03:45:40.837Z,-84
2023-03-16T03:46:43.710Z,-84
2023-03-16T03:47:46.434Z,-84
2023-03-16T03:48:49.087Z,-83
2023-03-16T03:49:51.746Z,-85
2023-03-16T03:50:54.862Z,-84
2023-03-16T03:52:00.231Z,-85
2023-03-16T03:53:02.860Z,-84
2023-03-16T03:54:05.865Z,-85
2023-03-16T03:55:09.083Z,-84
2023-03-16T03:56:11.699Z,-84
2023-03-16T03:57:14.423Z,-84
2023-03-16T03:58:17.071Z,-84
2023-03-16T03:59:19.792Z,-84
2023-03-16T04:00:23.066Z,-84
2023-03-16T04:01:25.732Z,-84
2023-03-16T04:02:28.503Z,-83
2023-03-16T04:03:32.177Z,-84
2023-03-16T04:04:34.853Z,-84
2023-03-16T04:05:37.602Z,-84
2023-03-16T04:06:40.328Z,-84
2023-03-16T04:07:43.008Z,-84
2023-03-16T04:08:45.665Z,-84
2023-03-16T04:09:48.366Z,-84
2023-03-16T04:10:51.194Z,-84
2023-03-16T04:11:54.096Z,-83
2023-03-16T04:12:57.448Z,-84
2023-03-16T04:14:00.276Z,-83
2023-03-16T04:15:03.124Z,-84
2023-03-16T04:16:05.994Z,-84
2023-03-16T04:17:08.780Z,-84
2023-03-16T04:18:11.492Z,-84
2023-03-16T04:19:14.166Z,-84
2023-03-16T04:20:20.476Z,-84
2023-03-16T04:21:23.743Z,-84
2023-03-16T04:22:26.426Z,-84
2023-03-16T04:23:29.052Z,-84
2023-03-16T04:24:35.361Z,-84
2023-03-16T04:25:39.647Z,-84
2023-03-16T04:26:46.097Z,-83
2023-03-16T04:27:48.756Z,-84
2023-03-16T04:28:52.849Z,-84
2023-03-16T04:29:57.873Z,-84
2023-03-16T04:31:09.380Z,-84
2023-03-16T04:32:12.778Z,-80
2023-03-16T04:33:16.061Z,-84
2023-03-16T04:34:18.768Z,-84
2023-03-16T04:35:21.403Z,-84
2023-03-16T04:36:26.812Z,-84
2023-03-16T04:37:29.422Z,-84
2023-03-16T04:38:34.988Z,-84
2023-03-16T04:39:37.783Z,-83
2023-03-16T04:40:40.615Z,-84
2023-03-16T04:41:43.224Z,-84
2023-03-16T04:42:47.246Z,-84
2023-03-16T04:43:49.922Z,-85
2023-03-16T04:44:52.605Z,-84
2023-03-16T04:45:55.424Z,-84
2023-03-16T04:46:58.074Z,-84
2023-03-16T04:48:00.809Z,-84
2023-03-16T04:49:03.555Z,-84
2023-03-16T04:50:07.333Z,-84
2023-03-16T04:51:10.092Z,-84
2023-03-16T04:52:12.809Z,-84
2023-03-16T04:53:15.644Z,-84
2023-03-16T04:54:18.358Z,-84
2023-03-16T04:55:21.010Z,-84
2023-03-16T04:56:24.902Z,-85
2023-03-16T04:57:27.631Z,-84
2023-03-16T04:58:30.425Z,-83
2023-03-16T04:59:33.173Z,-85
2023-03-16T05:00:35.831Z,-85
2023-03-16T05:01:40.028Z,-83
2023-03-16T05:02:42.740Z,-83
2023-03-16T05:03:46.355Z,-86
2023-03-16T05:04:49.591Z,-83
2023-03-16T05:05:52.629Z,-84
2023-03-16T05:06:55.305Z,-84
2023-03-16T05:07:57.960Z,-84
2023-03-16T05:09:04.697Z,-84
2023-03-16T05:10:07.697Z,-84
2023-03-16T05:11:10.433Z,-84
2023-03-16T05:12:13.214Z,-83
2023-03-16T05:13:15.953Z,-85
2023-03-16T05:14:18.550Z,-85
2023-03-16T05:15:21.256Z,-86
2023-03-16T05:16:23.920Z,-85
2023-03-16T05:17:26.615Z,-85
2023-03-16T05:18:29.318Z,-87
2023-03-16T05:19:32.018Z,-85
2023-03-16T05:20:34.665Z,-85
2023-03-16T05:21:38.855Z,-85
2023-03-16T05:22:43.361Z,-85
2023-03-16T05:23:45.986Z,-86
2023-03-16T05:24:48.754Z,-85
2023-03-16T05:25:51.998Z,-84
2023-03-16T05:26:54.679Z,-85
2023-03-16T05:27:58.580Z,-85
2023-03-16T05:29:01.938Z,-85
2023-03-16T05:30:04.784Z,-85
2023-03-16T05:31:07.700Z,-83
2023-03-16T05:32:10.334Z,-84
2023-03-16T05:33:13.766Z,-84
2023-03-16T05:34:16.874Z,-82
2023-03-16T05:35:22.079Z,-84
2023-03-16T05:36:26.562Z,-84
2023-03-16T05:37:29.200Z,-84
2023-03-16T05:38:33.047Z,-83
2023-03-16T05:39:35.796Z,-83
2023-03-16T05:40:38.560Z,-82
2023-03-16T05:41:42.203Z,-83
2023-03-16T05:42:46.907Z,-84
2023-03-16T05:45:41.829Z,-84
2023-03-16T05:46:50.398Z,-84
2023-03-16T05:52:34.950Z,-84
2023-03-16T05:53:37.653Z,-84
2023-03-16T05:54:44.859Z,-84
2023-03-16T05:55:55.376Z,-84
2023-03-16T05:56:58.092Z,-84
2023-03-16T05:58:00.766Z,-84
2023-03-16T05:59:03.803Z,-84
2023-03-16T06:00:17.601Z,-81
2023-03-16T06:01:21.377Z,-81
2023-03-16T06:02:24.317Z,-81
2023-03-16T06:03:27.318Z,-81
2023-03-16T06:04:29.986Z,-81
2023-03-16T06:05:33.253Z,-81
2023-03-16T06:06:36.034Z,-80
2023-03-16T06:07:38.753Z,-81
2023-03-16T06:08:41.423Z,-81
2023-03-16T06:09:44.037Z,-81
2023-03-16T06:10:50.018Z,-81
2023-03-16T06:11:52.627Z,-81
2023-03-16T06:12:55.263Z,-84
2023-03-16T06:13:58.957Z,-81
2023-03-16T06:15:02.611Z,-80
2023-03-16T06:17:22.736Z,-82
2023-03-16T06:18:26.051Z,-81
2023-03-16T06:19:28.716Z,-82
2023-03-16T06:20:31.459Z,-82
2023-03-16T06:22:12.398Z,-82
2023-03-16T06:23:21.709Z,-80
2023-03-16T06:24:24.387Z,-82
2023-03-16T06:25:27.125Z,-81
2023-03-16T06:26:29.775Z,-81
2023-03-16T06:27:32.482Z,-81
2023-03-16T06:28:35.254Z,-82
2023-03-16T06:29:37.951Z,-81
2023-03-16T06:30:41.302Z,-81
2023-03-16T06:31:43.985Z,-81
2023-03-16T06:32:46.869Z,-81
2023-03-16T06:33:49.606Z,-81
2023-03-16T06:34:52.591Z,-81
2023-03-16T06:35:55.258Z,-81
2023-03-16T06:36:59.089Z,-81
2023-03-16T06:38:02.117Z,-81
2023-03-16T06:39:06.135Z,-82
2023-03-16T06:40:09.366Z,-82
2023-03-16T06:41:12.021Z,-81
2023-03-16T06:42:14.694Z,-81
2023-03-16T06:43:17.376Z,-81
2023-03-16T06:44:20.148Z,-81
2023-03-16T06:45:23.330Z,-81
2023-03-16T06:46:26.114Z,-81
2023-03-16T06:47:29.054Z,-81
2023-03-16T06:48:32.390Z,-81
2023-03-16T06:49:35.129Z,-81
2023-03-16T06:50:37.922Z,-81
2023-03-16T06:51:40.562Z,-81
2023-03-16T06:52:43.256Z,-81
2023-03-16T06:53:45.962Z,-81
2023-03-16T06:54:48.690Z,-81
2023-03-16T06:55:52.375Z,-81
2023-03-16T06:56:55.031Z,-81
2023-03-16T06:57:57.693Z,-81
2023-03-16T06:59:00.358Z,-81
2023-03-16T07:00:05.291Z,-81
2023-03-16T07:01:08.512Z,-81
2023-03-16T07:02:15.545Z,-81
2023-03-16T07:03:18.394Z,-81
2023-03-16T07:04:21.091Z,-81
2023-03-16T07:05:23.857Z,-81
2023-03-16T07:06:26.727Z,-81
2023-03-16T07:07:29.751Z,-80
2023-03-16T07:08:32.532Z,-81
2023-03-16T07:09:38.219Z,-80
2023-03-16T07:10:42.023Z,-80
2023-03-16T07:11:45.822Z,-80
2023-03-16T07:12:48.739Z,-80
2023-03-16T07:13:51.380Z,-80
2023-03-16T07:14:54.356Z,-81
2023-03-16T07:15:57.263Z,-81
2023-03-16T07:17:00.055Z,-81
2023-03-16T07:18:02.839Z,-81
2023-03-16T07:19:05.588Z,-81
2023-03-16T07:20:11.825Z,-82
2023-03-16T07:21:15.373Z,-81
2023-03-16T07:22:18.120Z,-81
2023-03-16T07:23:21.024Z,-81
2023-03-16T07:24:23.675Z,-81
2023-03-16T07:25:26.330Z,-81
2023-03-16T07:26:28.994Z,-81
2023-03-16T07:27:32.386Z,-81
2023-03-16T07:28:36.241Z,-81
2023-03-16T07:29:38.869Z,-81
2023-03-16T07:30:50.539Z,-82
2023-03-16T07:32:03.097Z,-82
2023-03-16T07:33:06.475Z,-81
2023-03-16T07:34:09.248Z,-82
2023-03-16T07:35:12.821Z,-82
2023-03-16T07:36:15.581Z,-81
2023-03-16T07:37:21.797Z,-82
2023-03-16T07:38:27.681Z,-79
2023-03-16T07:39:30.334Z,-82
2023-03-16T07:40:35.488Z,-82
2023-03-16T07:41:38.245Z,-82
2023-03-16T07:42:41.527Z,-82
2023-03-16T07:43:45.491Z,-82
2023-03-16T07:44:49.070Z,-81
2023-03-16T07:45:54.107Z,-82
2023-03-16T07:46:57.390Z,-82
2023-03-16T07:48:00.088Z,-82
2023-03-16T07:49:02.766Z,-82
2023-03-16T07:50:05.923Z,-80
2023-03-16T07:51:08.652Z,-82
2023-03-16T07:54:22.427Z,-83
2023-03-16T07:55:28.153Z,-81
2023-03-16T07:56:42.366Z,-82
2023-03-16T07:57:56.451Z,-81
2023-03-16T07:58:59.421Z,-81
2023-03-16T08:00:15.299Z,-81
2023-03-16T08:01:18.232Z,-81
2023-03-16T08:03:44.023Z,-82
2023-03-16T08:04:47.290Z,-82
2023-03-16T08:05:52.510Z,-82
2023-03-16T08:08:31.554Z,-82
2023-03-16T08:09:49.297Z,-82
2023-03-16T08:10:55.068Z,-81
2023-03-16T08:11:59.222Z,-82
2023-03-16T08:13:01.908Z,-81
2023-03-16T08:14:05.293Z,-82
2023-03-16T08:15:08.863Z,-82
2023-03-16T08:16:11.659Z,-81
2023-03-16T08:17:14.560Z,-84
2023-03-16T08:18:17.347Z,-81
2023-03-16T08:19:21.341Z,-81
2023-03-16T08:20:24.112Z,-82
2023-03-16T08:21:27.339Z,-83
2023-03-16T08:22:30.014Z,-82
2023-03-16T08:23:34.697Z,-83
2023-03-16T08:24:39.553Z,-82
2023-03-16T08:25:42.749Z,-82
2023-03-16T08:26:45.590Z,-82
2023-03-16T08:27:49.667Z,-82
2023-03-16T08:28:53.151Z,-82
2023-03-16T08:29:56.434Z,-82
2023-03-16T08:30:59.508Z,-82
2023-03-16T08:32:02.199Z,-82
2023-03-16T08:33:05.656Z,-83
2023-03-16T08:34:08.350Z,-82
2023-03-16T08:35:15.419Z,-82
2023-03-16T08:36:19.462Z,-82
2023-03-16T08:37:23.166Z,-81
2023-03-16T08:38:26.372Z,-82
2023-03-16T08:39:30.171Z,-82
2023-03-16T08:40:35.905Z,-82
2023-03-16T08:41:38.968Z,-82
2023-03-16T08:42:42.555Z,-82
2023-03-16T08:43:45.876Z,-82
2023-03-16T08:44:52.033Z,-82
2023-03-16T08:45:55.062Z,-82
2023-03-16T08:46:57.804Z,-81
2023-03-16T08:48:00.776Z,-81
2023-03-16T08:49:03.965Z,-81
2023-03-16T08:50:07.952Z,-81
2023-03-16T08:51:12.648Z,-81
2023-03-16T08:52:15.317Z,-81
2023-03-16T08:53:17.953Z,-81
2023-03-16T08:54:20.713Z,-81
2023-03-16T08:55:23.337Z,-82
2023-03-16T08:56:26.454Z,-82
2023-03-16T08:57:29.172Z,-81
2023-03-16T08:58:34.016Z,-81
2023-03-16T08:59:36.716Z,-81
2023-03-16T09:00:40.828Z,-81
2023-03-16T09:01:43.728Z,-81
2023-03-16T09:02:46.706Z,-82
2023-03-16T09:03:49.386Z,-82
2023-03-16T09:04:53.503Z,-82
2023-03-16T09:06:05.969Z,-81
2023-03-16T09:07:10.054Z,-83
2023-03-16T09:08:13.756Z,-81
2023-03-16T09:09:16.645Z,-82
2023-03-16T09:10:20.057Z,-81
2023-03-16T09:11:23.357Z,-82
2023-03-16T09:12:26.118Z,-82
2023-03-16T09:13:29.902Z,-82
2023-03-16T09:14:32.815Z,-81
2023-03-16T09:15:36.560Z,-82
2023-03-16T09:16:39.688Z,-82
2023-03-16T09:17:46.934Z,-82
2023-03-16T09:18:49.613Z,-82
2023-03-16T09:19:54.382Z,-82
2023-03-16T09:21:07.745Z,-80
2023-03-16T09:22:11.438Z,-82
2023-03-16T09:23:15.092Z,-82
2023-03-16T09:24:17.859Z,-82
2023-03-16T09:25:21.561Z,-82
2023-03-16T09:26:24.254Z,-82
2023-03-16T09:27:27.462Z,-81
2023-03-16T09:28:32.396Z,-82
2023-03-16T09:29:35.379Z,-82
2023-03-16T09:30:38.664Z,-82
2023-03-16T09:31:42.171Z,-82
2023-03-16T09:32:45.065Z,-82
2023-03-16T09:33:48.654Z,-82
2023-03-16T09:34:51.709Z,-82
2023-03-16T09:35:54.407Z,-82
2023-03-16T09:36:57.541Z,-82
2023-03-16T09:38:07.345Z,-82
2023-03-16T09:39:10.082Z,-82
2023-03-16T09:40:26.469Z,-82
2023-03-16T09:41:42.382Z,-82
2023-03-16T09:42:56.322Z,-81
2023-03-16T09:44:26.245Z,-82
2023-03-16T09:45:54.048Z,-82
2023-03-16T09:46:59.555Z,-82
2023-03-16T09:48:06.097Z,-82
2023-03-16T09:49:11.950Z,-82
2023-03-16T09:50:22.069Z,-82
2023-03-16T09:51:41.437Z,-83
2023-03-16T09:53:16.508Z,-82
2023-03-16T09:54:33.226Z,-82
2023-03-16T09:55:40.036Z,-82
2023-03-16T09:56:44.379Z,-82
2023-03-16T09:57:48.344Z,-82
2023-03-16T09:58:51.156Z,-82
2023-03-16T09:59:54.314Z,-82
2023-03-16T10:01:15.450Z,-82
2023-03-16T10:02:47.698Z,-82
2023-03-16T10:04:04.830Z,-80
2023-03-16T10:05:14.400Z,-80
2023-03-16T10:06:17.935Z,-80
2023-03-16T10:07:42.240Z,-80
2023-03-16T10:08:54.390Z,-80
2023-03-16T10:10:25.848Z,-80
2023-03-16T10:11:31.476Z,-80
2023-03-16T10:12:39.220Z,-80
2023-03-16T10:14:04.307Z,-80
2023-03-16T10:15:17.688Z,-78
2023-03-16T10:16:23.563Z,-80
2023-03-16T10:17:56.588Z,-80
2023-03-16T10:19:11.147Z,-80
2023-03-16T10:20:21.800Z,-80
2023-03-16T10:21:25.778Z,-80
2023-03-16T10:22:33.164Z,-80
2023-03-16T10:23:36.670Z,-80
2023-03-16T10:25:03.508Z,-80
2023-03-16T10:26:14.825Z,-81
2023-03-16T10:27:28.221Z,-80
2023-03-16T10:28:38.655Z,-80
2023-03-16T10:29:42.542Z,-79
2023-03-16T10:30:45.740Z,-80
2023-03-16T10:31:48.481Z,-80
2023-03-16T10:32:51.592Z,-81
2023-03-16T10:34:03.727Z,-80
2023-03-16T10:35:24.083Z,-80
2023-03-16T10:36:35.866Z,-79
2023-03-16T10:37:39.892Z,-80
2023-03-16T10:38:47.904Z,-82
2023-03-16T10:39:50.691Z,-82
2023-03-16T10:40:55.149Z,-82
2023-03-16T10:42:00.730Z,-82
2023-03-16T10:43:16.285Z,-82
2023-03-16T10:44:27.886Z,-82
2023-03-16T10:45:33.470Z,-82
2023-03-16T10:46:40.614Z,-82
2023-03-16T10:47:43.931Z,-82
2023-03-16T10:48:55.825Z,-82
2023-03-16T10:49:58.991Z,-82
2023-03-16T10:51:08.506Z,-80
2023-03-16T10:52:21.020Z,-80
2023-03-16T10:53:36.009Z,-82
2023-03-16T10:54:41.917Z,-80
2023-03-16T10:55:46.804Z,-81
2023-03-16T10:56:51.618Z,-80
2023-03-16T10:57:56.847Z,-81
2023-03-16T10:58:59.526Z,-80
2023-03-16T11:00:14.957Z,-81
2023-03-16T11:01:22.518Z,-80
2023-03-16T11:02:33.681Z,-80
2023-03-16T11:03:42.798Z,-80
2023-03-16T11:04:45.514Z,-80
2023-03-16T11:05:48.329Z,-80
2023-03-16T11:06:57.324Z,-80
2023-03-16T11:08:17.635Z,-80
2023-03-16T11:09:34.066Z,-80
2023-03-16T11:10:49.370Z,-80
2023-03-16T11:11:57.678Z,-81
2023-03-16T11:13:04.804Z,-80
2023-03-16T11:14:16.569Z,-80
2023-03-16T11:15:25.955Z,-80
2023-03-16T11:16:52.344Z,-80
2023-03-16T11:17:55.768Z,-83
2023-03-16T11:19:05.096Z,-80
2023-03-16T11:20:15.452Z,-81
2023-03-16T11:21:22.182Z,-79
2023-03-16T11:22:27.345Z,-80
2023-03-16T11:23:38.088Z,-80
2023-03-16T11:24:53.644Z,-83
2023-03-16T11:26:00.332Z,-80
2023-03-16T11:27:09.624Z,-80
2023-03-16T11:28:33.688Z,-80
2023-03-16T11:29:52.318Z,-80
2023-03-16T11:31:29.904Z,-81
2023-03-16T11:32:46.125Z,-82
2023-03-16T11:33:50.269Z,-81
2023-03-16T11:34:54.496Z,-81
2023-03-16T11:36:52.782Z,-81
2023-03-16T11:38:12.867Z,-81
2023-03-16T11:39:47.785Z,-82
2023-03-16T11:41:06.941Z,-82
2023-03-16T11:42:19.812Z,-81
2023-03-16T11:43:59.630Z,-81
2023-03-16T11:45:28.462Z,-81
2023-03-16T11:46:53.123Z,-81
2023-03-16T11:48:37.793Z,-82
2023-03-16T11:49:43.967Z,-81
2023-03-16T11:51:04.857Z,-82
2023-03-16T11:52:43.272Z,-80
2023-03-16T11:53:57.627Z,-81
2023-03-16T11:55:00.323Z,-81
2023-03-16T11:56:24.801Z,-81
2023-03-16T12:05:01.792Z,-82
2023-03-16T12:08:35.182Z,-81
2023-03-16T12:09:56.939Z,-82
2023-03-16T12:11:05.773Z,-82
2023-03-16T12:12:24.251Z,-82
2023-03-16T12:13:41.717Z,-81
2023-03-16T12:14:52.916Z,-81
2023-03-16T12:16:06.771Z,-81
2023-03-16T12:17:21.689Z,-82
2023-03-16T12:18:42.754Z,-81
2023-03-16T12:19:56.846Z,-82
2023-03-16T12:21:16.172Z,-81
2023-03-16T12:22:29.460Z,-82
2023-03-16T12:23:39.761Z,-80
2023-03-16T12:24:45.632Z,-79
2023-03-16T12:25:50.362Z,-80
2023-03-16T12:26:54.452Z,-81
2023-03-16T12:27:59.960Z,-82
2023-03-16T12:29:15.367Z,-82
2023-03-16T12:31:10.812Z,-81
2023-03-16T12:32:20.299Z,-82
2023-03-16T12:34:00.320Z,-81
2023-03-16T12:35:28.646Z,-81
2023-03-16T12:36:37.932Z,-81
2023-03-16T12:38:07.182Z,-82
2023-03-16T12:39:14.749Z,-82
2023-03-16T12:40:47.507Z,-81
2023-03-16T12:42:23.133Z,-81
2023-03-16T12:43:34.739Z,-82
2023-03-16T12:44:51.087Z,-82
2023-03-16T12:46:27.759Z,-82
2023-03-16T12:47:58.945Z,-81
2023-03-16T12:49:03.888Z,-81
2023-03-16T12:50:10.532Z,-81
2023-03-16T12:51:13.307Z,-81
2023-03-16T12:52:16.143Z,-81
2023-03-16T12:53:54.247Z,-82
2023-03-16T12:55:15.628Z,-80
2023-03-16T12:56:21.591Z,-81
2023-03-16T12:57:28.116Z,-82
2023-03-16T12:58:31.168Z,-82
2023-03-16T12:59:59.393Z,-82
2023-03-16T13:01:02.789Z,-82
2023-03-16T13:02:15.442Z,-82
2023-03-16T13:03:22.421Z,-82
2023-03-16T13:04:34.839Z,-82
2023-03-16T13:05:39.484Z,-82
2023-03-16T13:06:51.293Z,-82
2023-03-16T13:08:25.497Z,-82
2023-03-16T13:09:32.893Z,-82
2023-03-16T13:10:36.108Z,-82
2023-03-16T13:11:51.226Z,-82
2023-03-16T13:12:53.892Z,-82
2023-03-16T13:14:36.134Z,-82
2023-03-16T13:15:40.812Z,-82
2023-03-16T13:16:44.935Z,-82
2023-03-16T13:17:50.094Z,-82
2023-03-16T13:18:54.332Z,-82
2023-03-16T13:20:33.310Z,-82
2023-03-16T13:21:39.558Z,-82
2023-03-16T13:22:49.599Z,-82
2023-03-16T13:24:01.110Z,-80
2023-03-16T13:25:23.613Z,-82
2023-03-16T13:26:53.310Z,-81
2023-03-16T13:28:00.203Z,-83
2023-03-16T13:29:22.766Z,-82
2023-03-16T13:30:30.035Z,-82
2023-03-16T13:31:43.132Z,-82
2023-03-16T13:32:46.415Z,-82
2023-03-16T13:33:51.665Z,-82
2023-03-16T13:34:59.645Z,-82
2023-03-16T13:36:02.434Z,-82
2023-03-16T13:37:05.377Z,-82
2023-03-16T13:38:16.823Z,-81
2023-03-16T13:39:23.452Z,-81
2023-03-16T13:40:28.948Z,-82
2023-03-16T13:41:31.987Z,-81
2023-03-16T13:42:35.306Z,-82
2023-03-16T13:43:43.672Z,-82
2023-03-16T13:44:47.085Z,-81
2023-03-16T13:45:49.796Z,-81
2023-03-16T13:46:52.469Z,-81
2023-03-16T13:47:55.275Z,-81
2023-03-16T13:49:03.711Z,-82
2023-03-16T13:50:08.335Z,-82
2023-03-16T13:51:23.702Z,-81
2023-03-16T13:52:30.450Z,-82
2023-03-16T13:53:34.152Z,-82
2023-03-16T13:54:38.364Z,-81
2023-03-16T13:55:42.741Z,-81
2023-03-16T13:56:45.523Z,-81
2023-03-16T13:57:50.240Z,-82
2023-03-16T13:58:54.965Z,-82
2023-03-16T14:00:19.214Z,-82
2023-03-16T14:01:32.089Z,-82
2023-03-16T14:02:42.866Z,-81
2023-03-16T14:03:46.397Z,-81
2023-03-16T14:04:49.470Z,-82
2023-03-16T14:05:52.109Z,-82
2023-03-16T14:06:59.890Z,-82
2023-03-16T14:08:03.535Z,-82
2023-03-16T14:09:19.290Z,-82
2023-03-16T14:10:24.240Z,-81
2023-03-16T14:11:28.110Z,-82
2023-03-16T14:12:30.810Z,-81
2023-03-16T14:13:37.342Z,-81
2023-03-16T14:14:42.290Z,-81
2023-03-16T14:15:46.491Z,-81
2023-03-16T14:16:50.007Z,-81
2023-03-16T14:17:52.906Z,-81
2023-03-16T14:18:57.470Z,-81
2023-03-16T14:20:01.982Z,-81
2023-03-16T14:21:27.891Z,-81
2023-03-16T14:22:38.234Z,-82
2023-03-16T14:23:49.034Z,-82
2023-03-16T14:25:00.144Z,-82
2023-03-16T14:26:05.582Z,-81
2023-03-16T14:27:42.613Z,-83
2023-03-16T14:29:05.741Z,-82
2023-03-16T14:30:28.763Z,-82
2023-03-16T14:31:37.280Z,-82
2023-03-16T14:32:41.087Z,-82
2023-03-16T14:33:44.350Z,-82
2023-03-16T14:34:50.956Z,-82
2023-03-16T14:35:58.118Z,-81
2023-03-16T14:37:12.851Z,-82
2023-03-16T14:38:39.188Z,-82
2023-03-16T14:39:42.605Z,-83
2023-03-16T14:40:58.613Z,-82
2023-03-16T14:42:05.081Z,-81
2023-03-16T14:48:02.395Z,-81
2023-03-16T14:49:11.400Z,-82
2023-03-16T14:50:35.759Z,-81
2023-03-16T14:51:41.733Z,-82
2023-03-16T14:52:46.773Z,-82
2023-03-16T14:53:49.750Z,-82
2023-03-16T14:54:53.424Z,-82
2023-03-16T14:55:57.803Z,-81
2023-03-16T14:57:06.839Z,-83
2023-03-16T14:58:11.393Z,-82
2023-03-16T14:59:14.316Z,-82
2023-03-16T15:00:19.632Z,-82
2023-03-16T15:01:22.613Z,-82
2023-03-16T15:02:29.751Z,-82
2023-03-16T15:03:37.443Z,-82
2023-03-16T15:04:53.747Z,-82
2023-03-16T15:05:57.102Z,-83
2023-03-16T15:07:00.104Z,-82
2023-03-16T15:08:05.043Z,-82
2023-03-16T15:09:08.918Z,-82
2023-03-16T15:10:17.368Z,-82
2023-03-16T15:11:22.596Z,-82
2023-03-16T15:12:27.160Z,-82
2023-03-16T15:13:44.505Z,-83
2023-03-16T15:15:07.825Z,-82
2023-03-16T15:16:15.182Z,-82
2023-03-16T15:17:17.909Z,-82
2023-03-16T15:18:20.579Z,-83
2023-03-16T15:19:23.694Z,-83
2023-03-16T15:20:34.443Z,-82
2023-03-16T15:21:37.180Z,-82
2023-03-16T15:22:41.014Z,-83
2023-03-16T15:23:44.904Z,-83
2023-03-16T15:24:47.542Z,-83
2023-03-16T15:25:52.832Z,-83
2023-03-16T15:26:55.771Z,-82
2023-03-16T15:27:58.705Z,-82
2023-03-16T15:29:01.465Z,-83
2023-03-16T15:30:04.285Z,-83
2023-03-16T15:31:07.975Z,-83
2023-03-16T15:32:15.630Z,-81
2023-03-16T15:33:18.698Z,-82
2023-03-16T15:34:21.379Z,-82
2023-03-16T15:35:24.247Z,-83
2023-03-16T15:36:27.226Z,-83
2023-03-16T15:37:31.483Z,-83
2023-03-16T15:38:37.849Z,-81
2023-03-16T15:39:41.241Z,-81
2023-03-16T15:40:46.539Z,-82
2023-03-16T15:41:49.378Z,-82
2023-03-16T15:42:52.773Z,-82
2023-03-16T15:44:01.681Z,-82
2023-03-16T15:45:11.994Z,-82
2023-03-16T15:46:15.889Z,-80
2023-03-16T15:47:18.628Z,-82
2023-03-16T15:48:25.320Z,-82
2023-03-16T15:49:30.185Z,-82